createdAt,value
2018-06-22T00:00:42.905Z,43.96
2018-06-22T00:03:47.225Z,45.91
2018-06-22T00:06:51.689Z,46.24
2018-06-22T00:09:56.013Z,46.11
2018-06-22T00:13:00.358Z,46.77
2018-06-22T00:16:04.734Z,45.11
2018-06-22T00:19:09.090Z,45.30
2018-06-22T00:22:13.628Z,44.48
2018-06-22T00:25:17.969Z,44.33
2018-06-22T00:28:22.374Z,44.72
2018-06-22T00:31:26.992Z,45.40
2018-06-22T00:34:31.292Z,45.60
2018-06-22T00:37:35.574Z,44.60
2018-06-22T00:40:40.027Z,44.91
2018-06-22T00:43:44.034Z,46.50
2018-06-22T00:46:48.097Z,46.83
2018-06-22T00:49:52.413Z,46.79
2018-06-22T00:52:56.717Z,45.68
2018-06-22T00:56:01.075Z,47.31
2018-06-22T00:59:05.383Z,47.28
2018-06-22T01:02:09.853Z,48.09
2018-06-22T01:05:14.491Z,49.20
2018-06-22T01:08:18.794Z,48.78
2018-06-22T01:11:23.307Z,48.91
2018-06-22T01:14:27.768Z,48.52
2018-06-22T01:17:32.797Z,48.61
2018-06-22T01:20:37.204Z,48.70
2018-06-22T01:23:41.581Z,49.66
2018-06-22T01:26:46.382Z,49.69
2018-06-22T01:29:50.681Z,50.23
2018-06-22T01:32:55.106Z,50.27
2018-06-22T01:35:59.415Z,50.80
2018-06-22T01:39:04.796Z,51.68
2018-06-22T01:42:09.177Z,51.85
2018-06-22T01:45:13.511Z,52.45
2018-06-22T01:48:17.967Z,52.47
2018-06-22T01:51:22.285Z,52.03
2018-06-22T01:54:26.712Z,51.63
2018-06-22T01:57:31.082Z,50.70
2018-06-22T02:00:35.370Z,51.63
2018-06-22T02:03:39.703Z,51.49
2018-06-22T02:06:44.019Z,52.30
2018-06-22T02:09:48.330Z,52.15
2018-06-22T02:12:52.624Z,54.30
2018-06-22T02:15:56.958Z,50.08
2018-06-22T02:19:01.003Z,51.99
2018-06-22T02:22:05.310Z,53.45
2018-06-22T02:25:09.616Z,54.51
2018-06-22T02:28:13.939Z,53.89
2018-06-22T02:31:18.253Z,53.53
2018-06-22T02:34:22.563Z,56.68
2018-06-22T02:37:26.874Z,56.51
2018-06-22T02:40:31.187Z,56.10
2018-06-22T02:43:36.742Z,55.79
2018-06-22T02:46:41.093Z,55.35
2018-06-22T02:49:45.395Z,53.85
2018-06-22T02:52:49.742Z,54.73
2018-06-22T02:55:54.251Z,56.53
2018-06-22T02:58:58.562Z,58.57
2018-06-22T03:02:02.882Z,57.36
2018-06-22T03:05:07.260Z,57.21
2018-06-22T03:08:11.682Z,57.56
2018-06-22T03:11:16.009Z,57.87
2018-06-22T03:14:20.668Z,58.76
2018-06-22T03:17:41.680Z,58.28
2018-06-22T03:20:46.386Z,59.17
2018-06-22T03:23:50.703Z,59.62
2018-06-22T03:26:55.771Z,59.75
2018-06-22T03:30:01.754Z,60.82
2018-06-22T03:33:06.181Z,60.90
2018-06-22T03:36:10.568Z,61.25
2018-06-22T03:39:14.936Z,61.27
2018-06-22T03:42:19.655Z,60.72
2018-06-22T03:45:24.070Z,61.28
2018-06-22T03:48:28.660Z,60.30
2018-06-22T03:51:33.264Z,60.20
2018-06-22T03:54:37.959Z,60.96
2018-06-22T03:57:42.763Z,60.72
2018-06-22T04:00:47.426Z,60.87
2018-06-22T04:03:51.924Z,60.75
2018-06-22T04:06:57.001Z,61.61
2018-06-22T04:10:01.350Z,60.59
2018-06-22T04:13:05.754Z,61.17
2018-06-22T04:16:10.428Z,61.71
2018-06-22T04:19:14.801Z,62.00
2018-06-22T04:22:19.457Z,61.00
2018-06-22T04:25:25.063Z,62.00
2018-06-22T04:28:31.204Z,61.04
2018-06-22T04:31:35.647Z,59.93
2018-06-22T04:34:41.773Z,59.55
2018-06-22T04:37:46.486Z,59.01
2018-06-22T04:40:50.873Z,58.40
2018-06-22T04:43:55.448Z,57.96
2018-06-22T04:46:59.966Z,57.13
2018-06-22T04:50:04.635Z,56.39
2018-06-22T04:53:09.096Z,57.67
2018-06-22T04:56:13.698Z,59.31
2018-06-22T04:59:18.037Z,58.46
2018-06-22T05:02:22.498Z,58.34
2018-06-22T05:05:38.616Z,57.64
2018-06-22T05:08:43.026Z,58.07
2018-06-22T05:11:47.421Z,58.46
2018-06-22T05:14:51.766Z,59.60
2018-06-22T05:17:56.095Z,58.98
2018-06-22T05:21:01.030Z,57.55
2018-06-22T05:24:05.482Z,57.41
2018-06-22T05:27:10.145Z,57.82
2018-06-22T05:30:14.562Z,57.04
2018-06-22T05:33:19.535Z,56.29
2018-06-22T05:36:24.015Z,55.68
2018-06-22T05:39:28.305Z,56.72
2018-06-22T05:42:32.609Z,55.34
2018-06-22T05:45:37.213Z,54.31
2018-06-22T05:48:41.579Z,55.04
2018-06-22T05:51:45.924Z,54.84
2018-06-22T05:54:50.289Z,54.14
2018-06-22T05:57:54.869Z,57.42
2018-06-22T06:00:59.238Z,55.94
2018-06-22T06:04:03.319Z,53.17
2018-06-22T06:07:09.111Z,54.39
2018-06-22T06:10:13.461Z,53.97
2018-06-22T06:13:17.805Z,52.65
2018-06-22T06:16:22.686Z,54.68
2018-06-22T06:19:27.737Z,55.22
2018-06-22T06:22:32.538Z,56.82
2018-06-22T06:25:37.730Z,56.26
2018-06-22T06:28:42.349Z,54.82
2018-06-22T06:31:46.649Z,52.30
2018-06-22T06:34:51.091Z,51.40
2018-06-22T06:37:55.573Z,50.53
2018-06-22T06:40:59.890Z,50.74
2018-06-22T06:44:04.196Z,51.61
2018-06-22T06:47:09.917Z,51.98
2018-06-22T06:50:14.222Z,49.24
2018-06-22T06:53:18.558Z,52.60
2018-06-22T06:56:23.054Z,54.33
2018-06-22T06:59:27.368Z,52.14
2018-06-22T07:02:31.782Z,51.45
2018-06-22T07:05:36.192Z,51.44
2018-06-22T07:08:40.846Z,52.38
2018-06-22T07:11:45.214Z,50.06
2018-06-22T07:14:49.536Z,49.99
2018-06-22T07:17:54.057Z,53.27
2018-06-22T07:20:58.535Z,52.50
2018-06-22T07:24:02.918Z,51.40
2018-06-22T07:27:07.547Z,50.75
2018-06-22T07:30:11.913Z,53.19
2018-06-22T07:33:17.414Z,50.44
2018-06-22T07:36:21.831Z,48.35
2018-06-22T07:39:26.566Z,47.63
2018-06-22T07:42:30.935Z,49.91
2018-06-22T07:45:35.546Z,50.37
2018-06-22T07:48:40.830Z,48.85
2018-06-22T07:51:45.266Z,49.92
2018-06-22T07:54:49.623Z,48.50
2018-06-22T07:57:54.070Z,49.92
2018-06-22T08:00:58.739Z,51.42
2018-06-22T08:04:03.175Z,51.03
2018-06-22T08:07:07.539Z,47.60
2018-06-22T08:10:11.901Z,48.13
2018-06-22T08:13:16.236Z,50.66
2018-06-22T08:16:21.292Z,48.16
2018-06-22T08:19:25.745Z,51.64
2018-06-22T08:22:30.161Z,49.35
2018-06-22T08:25:34.522Z,50.37
2018-06-22T08:28:38.977Z,50.20
2018-06-22T08:31:43.321Z,50.93
2018-06-22T08:34:47.744Z,50.51
2018-06-22T08:37:52.204Z,49.49
2018-06-22T08:40:56.766Z,49.58
2018-06-22T08:44:01.109Z,45.04
2018-06-22T08:47:05.448Z,42.99
2018-06-22T08:50:10.178Z,43.16
2018-06-22T08:53:14.522Z,45.95
2018-06-22T08:56:18.964Z,45.82
2018-06-22T08:59:23.540Z,50.32
2018-06-22T09:02:27.953Z,50.36
2018-06-22T09:05:32.377Z,47.08
2018-06-22T09:08:36.733Z,46.37
2018-06-22T09:11:41.152Z,44.50
2018-06-22T09:14:45.478Z,44.84
2018-06-22T09:17:50.278Z,46.48
2018-06-22T09:20:54.613Z,42.82
2018-06-22T09:23:59.502Z,41.62
2018-06-22T09:27:04.067Z,41.33
2018-06-22T09:30:08.421Z,39.67
2018-06-22T09:33:12.861Z,39.51
2018-06-22T09:36:17.335Z,42.74
2018-06-22T09:39:21.700Z,44.37
2018-06-22T09:42:26.105Z,46.18
2018-06-22T09:45:30.921Z,47.41
2018-06-22T09:48:35.269Z,44.39
2018-06-22T09:51:39.830Z,44.46
2018-06-22T09:54:44.216Z,43.46
2018-06-22T09:57:49.174Z,44.13
2018-06-22T10:00:54.023Z,41.83
2018-06-22T10:03:58.473Z,41.75
2018-06-22T10:07:02.774Z,42.74
2018-06-22T10:10:07.071Z,43.53
2018-06-22T10:13:12.281Z,45.02
2018-06-22T10:16:16.606Z,44.54
2018-06-22T10:19:20.977Z,43.30
2018-06-22T10:22:25.305Z,40.28
2018-06-22T10:25:29.841Z,44.15
2018-06-22T10:28:34.166Z,39.33
2018-06-22T10:31:38.605Z,42.28
2018-06-22T10:34:43.074Z,42.49
2018-06-22T10:37:47.586Z,41.84
2018-06-22T10:40:51.929Z,42.52
2018-06-22T10:43:56.254Z,41.73
2018-06-22T10:47:00.567Z,43.97
2018-06-22T10:50:06.022Z,41.18
2018-06-22T10:53:10.604Z,42.01
2018-06-22T10:56:15.195Z,42.47
2018-06-22T10:59:19.590Z,43.93
2018-06-22T11:02:24.069Z,45.38
2018-06-22T11:05:29.507Z,42.16
2018-06-22T11:08:35.193Z,39.50
2018-06-22T11:11:39.671Z,42.85
2018-06-22T11:14:45.513Z,41.62
2018-06-22T11:17:50.061Z,43.41
2018-06-22T11:20:54.617Z,42.04
2018-06-22T11:23:59.088Z,42.83
2018-06-22T11:27:03.413Z,44.59
2018-06-22T11:30:07.899Z,44.99
2018-06-22T11:33:12.364Z,44.58
2018-06-22T11:36:16.727Z,42.65
2018-06-22T11:39:21.234Z,42.10
2018-06-22T11:42:25.629Z,42.52
2018-06-22T11:45:29.939Z,44.19
2018-06-22T11:48:34.717Z,40.40
2018-06-22T11:51:39.206Z,42.26
2018-06-22T11:54:44.015Z,43.03
2018-06-22T11:57:48.337Z,42.96
2018-06-22T12:00:52.977Z,45.42
2018-06-22T12:03:57.849Z,45.38
2018-06-22T12:07:02.423Z,45.06
2018-06-22T12:10:06.953Z,45.72
2018-06-22T12:13:11.659Z,45.00
2018-06-22T12:16:16.175Z,43.60
2018-06-22T12:19:21.415Z,43.54
2018-06-22T12:22:26.183Z,45.22
2018-06-22T12:25:30.602Z,45.84
2018-06-22T12:28:35.739Z,47.01
2018-06-22T12:31:40.969Z,45.78
2018-06-22T12:34:45.553Z,46.30
2018-06-22T12:37:50.459Z,46.34
2018-06-22T12:40:54.769Z,47.48
2018-06-22T12:43:59.283Z,47.76
2018-06-22T12:47:03.518Z,46.65
2018-06-22T12:50:08.065Z,46.82
2018-06-22T12:53:12.402Z,46.49
2018-06-22T12:56:16.937Z,46.81
2018-06-22T12:59:21.378Z,46.07
2018-06-22T13:02:25.845Z,45.65
2018-06-22T13:05:30.376Z,46.22
2018-06-22T13:08:34.689Z,47.70
2018-06-22T13:11:39.197Z,47.65
2018-06-22T13:14:43.547Z,46.01
2018-06-22T13:17:47.963Z,46.10
2018-06-22T13:20:53.797Z,46.05
2018-06-22T13:23:58.259Z,47.25
2018-06-22T13:27:02.685Z,46.26
2018-06-22T13:30:07.129Z,47.28
2018-06-22T13:33:11.737Z,46.77
2018-06-22T13:36:16.162Z,46.19
2018-06-22T13:39:20.528Z,45.81
2018-06-22T13:42:25.109Z,45.22
2018-06-22T13:45:29.545Z,45.52
2018-06-22T13:48:34.091Z,46.37
2018-06-22T13:51:38.798Z,45.44
2018-06-22T13:54:43.666Z,48.25
2018-06-22T13:57:48.154Z,47.75
2018-06-22T14:00:52.566Z,46.79
2018-06-22T14:04:02.209Z,47.55
2018-06-22T14:07:07.992Z,47.38
2018-06-22T14:10:12.793Z,46.98
2018-06-22T14:13:17.785Z,47.88
2018-06-22T14:16:22.185Z,45.20
2018-06-22T14:19:26.492Z,46.18
2018-06-22T14:22:31.079Z,47.89
2018-06-22T14:25:35.614Z,45.61
2018-06-22T14:28:39.824Z,45.17
2018-06-22T14:31:44.348Z,46.86
2018-06-22T14:34:48.648Z,42.64
2018-06-22T14:37:53.054Z,45.84
2018-06-22T14:40:57.448Z,46.95
2018-06-22T14:44:01.834Z,47.56
2018-06-22T14:47:06.341Z,46.61
2018-06-22T14:50:15.815Z,46.44
2018-06-22T14:53:25.446Z,45.32
2018-06-22T14:56:35.167Z,44.31
2018-06-22T14:59:45.128Z,45.62
2018-06-22T15:02:55.042Z,45.02
2018-06-22T15:06:05.602Z,47.10
2018-06-22T15:09:12.056Z,43.73
2018-06-22T15:12:17.262Z,41.45
2018-06-22T15:15:22.492Z,43.16
2018-06-22T15:18:27.087Z,42.32
2018-06-22T15:21:31.740Z,44.67
2018-06-22T15:24:36.478Z,43.65
2018-06-22T15:27:41.165Z,43.56
2018-06-22T15:30:45.554Z,43.77
2018-06-22T15:33:55.559Z,44.34
2018-06-22T15:37:05.276Z,44.38
2018-06-22T15:40:19.318Z,43.95
2018-06-22T15:43:29.784Z,44.56
2018-06-22T15:46:39.571Z,44.90
2018-06-22T15:49:49.485Z,44.21
2018-06-22T15:52:59.232Z,44.75
2018-06-22T15:56:08.655Z,45.26
2018-06-22T15:59:13.754Z,45.37
2018-06-22T16:02:23.430Z,44.31
2018-06-22T16:05:28.115Z,45.29
2018-06-22T16:08:32.652Z,45.43
2018-06-22T16:11:37.733Z,45.62
2018-06-22T16:14:47.362Z,43.32
2018-06-22T16:17:57.053Z,43.62
2018-06-22T16:23:20.990Z,43.28
2018-06-22T16:26:30.658Z,41.73
2018-06-22T16:29:34.993Z,40.81
2018-06-22T16:32:39.652Z,41.61
2018-06-22T16:35:44.181Z,42.71
2018-06-22T16:38:48.617Z,40.51
2018-06-22T16:41:53.524Z,41.93
2018-06-22T16:44:59.350Z,39.94
2018-06-22T16:48:03.662Z,40.13
2018-06-22T16:51:08.239Z,37.97
2018-06-22T16:54:13.322Z,41.20
2018-06-22T16:57:17.612Z,40.59
2018-06-22T17:00:22.010Z,40.65
2018-06-22T17:03:26.558Z,40.74
2018-06-22T17:06:36.115Z,39.54
2018-06-22T17:09:45.758Z,39.97
2018-06-22T17:12:55.508Z,39.89
2018-06-22T17:16:05.144Z,39.54
2018-06-22T17:19:14.799Z,39.06
2018-06-22T17:22:19.430Z,39.93
2018-06-22T17:25:24.085Z,39.30
2018-06-22T17:28:28.271Z,39.83
2018-06-22T17:31:32.705Z,39.80
2018-06-22T17:34:37.148Z,40.91
2018-06-22T17:37:41.885Z,40.32
2018-06-22T17:40:46.325Z,40.52
2018-06-22T17:43:50.751Z,41.30
2018-06-22T17:46:55.294Z,42.23
2018-06-22T17:50:03.866Z,42.19
2018-06-22T17:53:08.344Z,40.74
2018-06-22T17:56:16.869Z,42.45
2018-06-22T17:59:26.726Z,41.73
2018-06-22T18:02:36.189Z,43.39
2018-06-22T18:05:45.844Z,43.58
2018-06-22T18:08:50.333Z,44.04
2018-06-22T18:12:00.016Z,43.78
2018-06-22T18:15:04.456Z,44.15
2018-06-22T18:18:09.513Z,45.00
2018-06-22T18:21:13.960Z,45.76
2018-06-22T18:24:18.561Z,46.12
2018-06-22T18:27:22.951Z,45.84
2018-06-22T18:30:27.323Z,47.06
2018-06-22T18:33:34.098Z,46.58
2018-06-22T18:36:38.390Z,46.80
2018-06-22T18:39:42.982Z,46.77
2018-06-22T18:42:48.038Z,47.01
2018-06-22T18:45:52.486Z,47.76
2018-06-22T18:48:58.543Z,47.77
2018-06-22T18:52:08.045Z,47.53
2018-06-22T18:55:17.425Z,49.11
2018-06-22T18:58:27.728Z,48.95
2018-06-22T19:01:38.057Z,49.17
2018-06-22T19:04:42.913Z,50.78
2018-06-22T19:07:48.360Z,52.57
2018-06-22T19:10:52.940Z,53.32
2018-06-22T19:13:57.598Z,53.02
2018-06-22T19:17:02.072Z,52.97
2018-06-22T19:20:07.081Z,52.61
2018-06-22T19:23:13.207Z,53.17
2018-06-22T19:26:17.701Z,54.18
2018-06-22T19:29:22.144Z,55.03
2018-06-22T19:32:26.445Z,55.96
2018-06-22T19:35:31.132Z,55.52
2018-06-22T19:38:35.463Z,55.55
2018-06-22T19:41:39.893Z,57.05
2018-06-22T19:44:49.524Z,56.56
2018-06-22T19:47:59.371Z,57.15
2018-06-22T19:51:09.275Z,57.10
2018-06-22T19:54:13.686Z,57.60
2018-06-22T19:57:18.312Z,57.21
2018-06-22T20:00:22.647Z,58.38
2018-06-22T20:03:26.995Z,57.93
2018-06-22T20:06:31.353Z,58.46
2018-06-22T20:09:35.857Z,59.30
2018-06-22T20:12:40.953Z,58.95
2018-06-22T20:15:45.409Z,60.01
2018-06-22T20:18:50.119Z,59.56
2018-06-22T20:21:55.113Z,59.76
2018-06-22T20:25:04.569Z,60.09
2018-06-22T20:28:08.883Z,60.39
2018-06-22T20:31:17.366Z,61.03
2018-06-22T20:34:27.005Z,60.42
2018-06-22T20:37:36.548Z,61.12
2018-06-22T20:40:46.249Z,61.22
2018-06-22T20:43:59.663Z,61.21
2018-06-22T20:47:09.333Z,61.50
2018-06-22T20:50:19.074Z,61.14
2018-06-22T20:53:23.450Z,61.74
2018-06-22T20:56:28.205Z,61.73
2018-06-22T20:59:32.771Z,61.67
2018-06-22T21:02:37.695Z,62.42
2018-06-22T21:05:42.317Z,61.94
2018-06-22T21:08:46.822Z,62.33
2018-06-22T21:11:52.144Z,62.02
2018-06-22T21:14:56.653Z,63.07
2018-06-22T21:18:01.185Z,62.13
2018-06-22T21:21:11.396Z,62.62
2018-06-22T21:24:15.513Z,63.44
2018-06-22T21:27:25.214Z,62.92
2018-06-22T21:30:34.858Z,63.29
2018-06-22T21:33:44.529Z,63.19
2018-06-22T21:36:54.230Z,63.58
2018-06-22T21:40:06.512Z,63.40
2018-06-22T21:43:11.325Z,62.97
2018-06-22T21:46:15.905Z,64.06
2018-06-22T21:49:20.213Z,63.76
2018-06-22T21:52:24.678Z,63.93
2018-06-22T21:55:29.020Z,64.58
2018-06-22T21:58:33.344Z,64.06
2018-06-22T22:01:37.735Z,63.64
2018-06-22T22:04:42.323Z,63.24
2018-06-22T22:07:46.881Z,63.83
2018-06-22T22:10:56.573Z,64.51
2018-06-22T22:14:00.874Z,64.49
2018-06-22T22:17:05.514Z,65.26
2018-06-22T22:20:09.825Z,65.70
2018-06-22T22:23:16.240Z,66.03
2018-06-22T22:26:20.529Z,65.96
2018-06-22T22:29:26.576Z,67.23
2018-06-22T22:32:31.294Z,66.14
2018-06-22T22:35:35.799Z,66.10
2018-06-22T22:38:40.357Z,66.03
2018-06-22T22:41:45.541Z,66.48
2018-06-22T22:44:49.860Z,66.58
2018-06-22T22:47:54.215Z,66.87
2018-06-22T22:50:58.785Z,67.06
2018-06-22T22:54:03.220Z,67.67
2018-06-22T22:57:07.634Z,67.49
2018-06-22T23:00:12.605Z,68.82
2018-06-22T23:03:17.050Z,67.98
2018-06-22T23:06:21.333Z,68.32
2018-06-22T23:09:25.737Z,67.94
2018-06-22T23:12:30.799Z,68.17
2018-06-22T23:15:35.185Z,67.66
2018-06-22T23:18:39.722Z,67.86
2018-06-22T23:21:44.060Z,67.64
2018-06-22T23:24:48.345Z,67.39
2018-06-22T23:27:52.781Z,67.22
2018-06-22T23:30:57.341Z,67.46
2018-06-22T23:34:01.647Z,67.71
2018-06-22T23:37:05.971Z,68.13
2018-06-22T23:40:10.414Z,68.11
2018-06-22T23:43:14.729Z,68.85
2018-06-22T23:46:19.135Z,69.41
2018-06-22T23:49:23.425Z,68.08
2018-06-22T23:52:28.109Z,68.82
2018-06-22T23:55:32.532Z,69.09
2018-06-22T23:58:37.012Z,69.47
